Lompico, California
Current Conditions -  °F | °C
As of 4:53 PM on Saturday 25 Oct 2014 (Local Time) from KWVI Reporting Station
Scattered Clouds Scattered Clouds  
Wind Chill: 20°   Ceiling: Unl
Heat Index: 20°   Visibility: 10mi
Dew Point: 15°   Wind: 9mph
Humidity: 73%   Direction: 230°SW
Pressure: 30.09"   Gusts: NA
Location:  37.0802°N, 122.052°W
Report Text: KWVI 252353Z AUTO 23008KT 10SM SCT017 20/15 A3009 RMK AO2 SLP189 60003 T02000150 10217 20172 56004
Loading
Personal Weather Stations






























Interactive Weather Map
Tropical Storm Tracking
New forecast layout! Learn more

10-Day Weather Forecast

Advertisements
Track Severe Weather on mobile